sensor_id;sensor_type;location;lat;lon;timestamp;P1;durP1;ratioP1;P2;durP2;ratioP2
59161;SDS011;44942;48.936;8.260;2023-02-05T00:00:51;8.30;;;6.23;;
59161;SDS011;44942;48.936;8.260;2023-02-05T00:05:52;9.27;;;6.27;;
59161;SDS011;44942;48.936;8.260;2023-02-05T00:10:53;8.00;;;6.47;;
59161;SDS011;44942;48.936;8.260;2023-02-05T00:15:53;10.37;;;6.60;;
59161;SDS011;44942;48.936;8.260;2023-02-05T00:20:54;7.40;;;6.00;;
59161;SDS011;44942;48.936;8.260;2023-02-05T00:25:54;7.23;;;5.97;;
59161;SDS011;44942;48.936;8.260;2023-02-05T00:30:55;6.93;;;5.80;;
59161;SDS011;44942;48.936;8.260;2023-02-05T00:35:55;7.97;;;6.00;;
59161;SDS011;44942;48.936;8.260;2023-02-05T00:40:56;7.13;;;5.87;;
59161;SDS011;44942;48.936;8.260;2023-02-05T00:45:57;7.57;;;5.90;;
59161;SDS011;44942;48.936;8.260;2023-02-05T00:50:57;8.13;;;6.23;;
59161;SDS011;44942;48.936;8.260;2023-02-05T00:55:58;8.37;;;6.20;;
59161;SDS011;44942;48.936;8.260;2023-02-05T01:00:59;6.97;;;5.97;;
59161;SDS011;44942;48.936;8.260;2023-02-05T01:05:59;8.10;;;6.47;;
59161;SDS011;44942;48.936;8.260;2023-02-05T01:11:05;7.72;;;6.18;;
59161;SDS011;44942;48.936;8.260;2023-02-05T01:16:07;6.93;;;5.78;;
59161;SDS011;44942;48.936;8.260;2023-02-05T01:21:10;7.85;;;6.07;;
59161;SDS011;44942;48.936;8.260;2023-02-05T01:26:11;8.33;;;6.00;;
59161;SDS011;44942;48.936;8.260;2023-02-05T01:31:11;7.30;;;5.63;;
59161;SDS011;44942;48.936;8.260;2023-02-05T01:36:12;7.67;;;6.03;;
59161;SDS011;44942;48.936;8.260;2023-02-05T01:41:13;6.50;;;5.63;;
59161;SDS011;44942;48.936;8.260;2023-02-05T01:46:20;8.27;;;6.20;;
59161;SDS011;44942;48.936;8.260;2023-02-05T01:51:28;7.20;;;5.65;;
59161;SDS011;44942;48.936;8.260;2023-02-05T01:56:32;6.57;;;5.72;;
59161;SDS011;44942;48.936;8.260;2023-02-05T02:01:38;7.53;;;5.97;;
59161;SDS011;44942;48.936;8.260;2023-02-05T02:06:39;7.60;;;5.85;;
59161;SDS011;44942;48.936;8.260;2023-02-05T02:11:40;7.93;;;5.90;;
59161;SDS011;44942;48.936;8.260;2023-02-05T02:16:42;8.32;;;5.45;;
59161;SDS011;44942;48.936;8.260;2023-02-05T02:22:04;7.63;;;5.67;;
59161;SDS011;44942;48.936;8.260;2023-02-05T02:27:36;7.22;;;5.80;;
59161;SDS011;44942;48.936;8.260;2023-02-05T02:32:55;7.32;;;5.80;;
59161;SDS011;44942;48.936;8.260;2023-02-05T02:49:10;7.47;;;5.72;;
59161;SDS011;44942;48.936;8.260;2023-02-05T02:54:15;6.72;;;5.38;;
59161;SDS011;44942;48.936;8.260;2023-02-05T02:59:18;5.85;;;4.93;;
59161;SDS011;44942;48.936;8.260;2023-02-05T03:04:26;6.15;;;5.22;;
59161;SDS011;44942;48.936;8.260;2023-02-05T03:09:41;7.07;;;4.85;;
59161;SDS011;44942;48.936;8.260;2023-02-05T03:14:45;7.45;;;5.50;;
59161;SDS011;44942;48.936;8.260;2023-02-05T03:19:47;7.10;;;5.25;;
59161;SDS011;44942;48.936;8.260;2023-02-05T03:25:10;6.22;;;5.13;;
59161;SDS011;44942;48.936;8.260;2023-02-05T03:30:11;6.40;;;5.10;;
59161;SDS011;44942;48.936;8.260;2023-02-05T03:40:42;7.05;;;5.40;;
59161;SDS011;44942;48.936;8.260;2023-02-05T03:45:54;7.93;;;4.80;;
59161;SDS011;44942;48.936;8.260;2023-02-05T03:56:06;6.22;;;5.03;;
59161;SDS011;44942;48.936;8.260;2023-02-05T04:01:14;5.57;;;4.93;;
59161;SDS011;44942;48.936;8.260;2023-02-05T04:06:16;6.45;;;4.65;;
59161;SDS011;44942;48.936;8.260;2023-02-05T04:11:16;6.33;;;4.90;;
59161;SDS011;44942;48.936;8.260;2023-02-05T04:16:17;7.10;;;4.90;;
59161;SDS011;44942;48.936;8.260;2023-02-05T04:21:17;5.53;;;4.80;;
59161;SDS011;44942;48.936;8.260;2023-02-05T04:26:18;5.60;;;5.00;;
59161;SDS011;44942;48.936;8.260;2023-02-05T04:31:18;5.63;;;4.50;;
59161;SDS011;44942;48.936;8.260;2023-02-05T04:36:19;6.63;;;4.83;;
59161;SDS011;44942;48.936;8.260;2023-02-05T04:41:19;5.73;;;4.60;;
59161;SDS011;44942;48.936;8.260;2023-02-05T04:46:20;6.87;;;4.83;;
59161;SDS011;44942;48.936;8.260;2023-02-05T04:51:21;5.40;;;4.43;;
59161;SDS011;44942;48.936;8.260;2023-02-05T04:56:21;5.27;;;4.47;;
59161;SDS011;44942;48.936;8.260;2023-02-05T05:01:22;6.67;;;4.97;;
59161;SDS011;44942;48.936;8.260;2023-02-05T05:06:23;5.35;;;4.57;;
59161;SDS011;44942;48.936;8.260;2023-02-05T05:11:23;5.30;;;4.03;;
59161;SDS011;44942;48.936;8.260;2023-02-05T05:16:24;5.45;;;4.53;;
59161;SDS011;44942;48.936;8.260;2023-02-05T05:21:25;5.17;;;4.17;;
59161;SDS011;44942;48.936;8.260;2023-02-05T05:26:25;5.70;;;4.77;;
59161;SDS011;44942;48.936;8.260;2023-02-05T05:31:26;5.17;;;4.30;;
59161;SDS011;44942;48.936;8.260;2023-02-05T05:36:27;5.63;;;4.47;;
59161;SDS011;44942;48.936;8.260;2023-02-05T05:41:27;4.60;;;3.90;;
59161;SDS011;44942;48.936;8.260;2023-02-05T05:46:47;4.75;;;4.13;;
59161;SDS011;44942;48.936;8.260;2023-02-05T05:51:47;5.43;;;4.20;;
59161;SDS011;44942;48.936;8.260;2023-02-05T05:56:48;4.43;;;4.03;;
59161;SDS011;44942;48.936;8.260;2023-02-05T06:01:48;4.87;;;4.27;;
59161;SDS011;44942;48.936;8.260;2023-02-05T06:06:49;4.60;;;3.97;;
59161;SDS011;44942;48.936;8.260;2023-02-05T06:11:49;5.40;;;4.13;;
59161;SDS011;44942;48.936;8.260;2023-02-05T06:16:50;4.50;;;3.93;;
59161;SDS011;44942;48.936;8.260;2023-02-05T06:21:51;4.68;;;4.00;;
59161;SDS011;44942;48.936;8.260;2023-02-05T06:26:51;6.03;;;3.83;;
59161;SDS011;44942;48.936;8.260;2023-02-05T06:31:52;5.65;;;3.78;;
59161;SDS011;44942;48.936;8.260;2023-02-05T06:36:52;4.60;;;4.00;;
59161;SDS011;44942;48.936;8.260;2023-02-05T06:41:53;6.20;;;3.83;;
59161;SDS011;44942;48.936;8.260;2023-02-05T06:46:53;4.77;;;3.73;;
59161;SDS011;44942;48.936;8.260;2023-02-05T06:51:54;4.57;;;3.90;;
59161;SDS011;44942;48.936;8.260;2023-02-05T06:56:55;4.90;;;3.83;;
59161;SDS011;44942;48.936;8.260;2023-02-05T07:01:55;4.10;;;3.70;;
59161;SDS011;44942;48.936;8.260;2023-02-05T07:06:56;5.33;;;3.80;;
59161;SDS011;44942;48.936;8.260;2023-02-05T07:11:57;14.80;;;7.90;;
59161;SDS011;44942;48.936;8.260;2023-02-05T07:16:57;12.23;;;7.20;;
59161;SDS011;44942;48.936;8.260;2023-02-05T07:21:58;11.93;;;7.33;;
59161;SDS011;44942;48.936;8.260;2023-02-05T07:26:58;11.90;;;7.23;;
59161;SDS011;44942;48.936;8.260;2023-02-05T07:31:59;14.17;;;7.90;;
59161;SDS011;44942;48.936;8.260;2023-02-05T07:37:00;17.87;;;6.57;;
59161;SDS011;44942;48.936;8.260;2023-02-05T07:42:00;12.23;;;6.00;;
59161;SDS011;44942;48.936;8.260;2023-02-05T07:47:01;15.17;;;5.37;;
59161;SDS011;44942;48.936;8.260;2023-02-05T07:52:01;11.90;;;5.53;;
59161;SDS011;44942;48.936;8.260;2023-02-05T07:57:02;9.83;;;4.90;;
59161;SDS011;44942;48.936;8.260;2023-02-05T08:02:03;7.60;;;4.57;;
59161;SDS011;44942;48.936;8.260;2023-02-05T08:07:03;8.93;;;4.73;;
59161;SDS011;44942;48.936;8.260;2023-02-05T08:12:05;8.65;;;4.30;;
59161;SDS011;44942;48.936;8.260;2023-02-05T08:17:05;5.33;;;3.63;;
59161;SDS011;44942;48.936;8.260;2023-02-05T08:22:06;8.40;;;4.03;;
59161;SDS011;44942;48.936;8.260;2023-02-05T08:27:06;9.30;;;3.80;;
59161;SDS011;44942;48.936;8.260;2023-02-05T08:32:07;8.27;;;3.60;;
59161;SDS011;44942;48.936;8.260;2023-02-05T08:37:08;22.07;;;4.30;;
59161;SDS011;44942;48.936;8.260;2023-02-05T08:42:08;7.55;;;3.22;;
59161;SDS011;44942;48.936;8.260;2023-02-05T08:47:09;6.33;;;3.30;;
59161;SDS011;44942;48.936;8.260;2023-02-05T08:52:10;8.32;;;3.80;;
59161;SDS011;44942;48.936;8.260;2023-02-05T08:57:10;8.97;;;3.60;;
59161;SDS011;44942;48.936;8.260;2023-02-05T09:02:14;10.53;;;3.63;;
59161;SDS011;44942;48.936;8.260;2023-02-05T09:07:14;11.00;;;3.50;;
59161;SDS011;44942;48.936;8.260;2023-02-05T09:12:15;11.70;;;3.60;;
59161;SDS011;44942;48.936;8.260;2023-02-05T09:17:16;6.27;;;3.33;;
59161;SDS011;44942;48.936;8.260;2023-02-05T09:22:17;7.10;;;3.20;;
59161;SDS011;44942;48.936;8.260;2023-02-05T09:27:17;10.27;;;3.53;;
59161;SDS011;44942;48.936;8.260;2023-02-05T09:32:18;10.30;;;3.50;;
59161;SDS011;44942;48.936;8.260;2023-02-05T09:37:18;8.73;;;3.30;;
59161;SDS011;44942;48.936;8.260;2023-02-05T09:42:39;6.15;;;3.40;;
59161;SDS011;44942;48.936;8.260;2023-02-05T09:47:53;12.33;;;3.13;;
59161;SDS011;44942;48.936;8.260;2023-02-05T09:53:02;5.65;;;3.30;;
59161;SDS011;44942;48.936;8.260;2023-02-05T09:58:06;6.60;;;2.80;;
59161;SDS011;44942;48.936;8.260;2023-02-05T10:14:04;9.02;;;2.80;;
59161;SDS011;44942;48.936;8.260;2023-02-05T10:19:22;13.95;;;3.15;;
59161;SDS011;44942;48.936;8.260;2023-02-05T10:29:57;16.80;;;3.42;;
59161;SDS011;44942;48.936;8.260;2023-02-05T10:35:23;17.55;;;3.47;;
59161;SDS011;44942;48.936;8.260;2023-02-05T10:40:28;15.13;;;3.15;;
59161;SDS011;44942;48.936;8.260;2023-02-05T10:45:33;11.95;;;3.20;;
59161;SDS011;44942;48.936;8.260;2023-02-05T10:50:46;8.57;;;2.50;;
59161;SDS011;44942;48.936;8.260;2023-02-05T10:55:58;16.15;;;2.88;;
59161;SDS011;44942;48.936;8.260;2023-02-05T11:01:00;8.18;;;2.67;;
59161;SDS011;44942;48.936;8.260;2023-02-05T11:06:06;11.27;;;3.28;;
59161;SDS011;44942;48.936;8.260;2023-02-05T11:11:19;7.55;;;2.95;;
59161;SDS011;44942;48.936;8.260;2023-02-05T11:16:23;10.95;;;2.80;;
59161;SDS011;44942;48.936;8.260;2023-02-05T11:21:46;7.80;;;2.47;;
59161;SDS011;44942;48.936;8.260;2023-02-05T11:26:47;9.40;;;3.40;;
59161;SDS011;44942;48.936;8.260;2023-02-05T11:31:48;7.20;;;2.83;;
59161;SDS011;44942;48.936;8.260;2023-02-05T11:36:50;7.70;;;2.50;;
59161;SDS011;44942;48.936;8.260;2023-02-05T11:41:52;6.25;;;2.50;;
59161;SDS011;44942;48.936;8.260;2023-02-05T11:46:56;8.10;;;3.00;;
59161;SDS011;44942;48.936;8.260;2023-02-05T11:51:59;9.20;;;2.70;;
59161;SDS011;44942;48.936;8.260;2023-02-05T12:07:28;8.68;;;2.83;;
59161;SDS011;44942;48.936;8.260;2023-02-05T12:12:42;8.25;;;2.53;;
59161;SDS011;44942;48.936;8.260;2023-02-05T12:34:23;19.40;;;3.15;;
59161;SDS011;44942;48.936;8.260;2023-02-05T12:39:45;24.75;;;3.88;;
59161;SDS011;44942;48.936;8.260;2023-02-05T12:50:09;20.83;;;3.40;;
59161;SDS011;44942;48.936;8.260;2023-02-05T13:00:50;18.00;;;3.13;;
59161;SDS011;44942;48.936;8.260;2023-02-05T13:06:13;14.18;;;2.75;;
59161;SDS011;44942;48.936;8.260;2023-02-05T13:16:39;13.05;;;2.53;;
59161;SDS011;44942;48.936;8.260;2023-02-05T13:21:53;6.90;;;2.50;;
59161;SDS011;44942;48.936;8.260;2023-02-05T13:27:22;12.02;;;2.95;;
59161;SDS011;44942;48.936;8.260;2023-02-05T13:32:47;31.23;;;5.07;;
59161;SDS011;44942;48.936;8.260;2023-02-05T13:59:21;57.47;;;8.65;;
59161;SDS011;44942;48.936;8.260;2023-02-05T14:04:50;51.60;;;8.85;;
59161;SDS011;44942;48.936;8.260;2023-02-05T14:09:56;49.63;;;8.27;;
59161;SDS011;44942;48.936;8.260;2023-02-05T14:30:53;56.58;;;8.32;;
59161;SDS011;44942;48.936;8.260;2023-02-05T14:41:25;42.22;;;7.93;;
59161;SDS011;44942;48.936;8.260;2023-02-05T14:46:34;65.63;;;10.80;;
59161;SDS011;44942;48.936;8.260;2023-02-05T14:51:48;83.10;;;10.57;;
59161;SDS011;44942;48.936;8.260;2023-02-05T14:57:17;59.92;;;9.35;;
59161;SDS011;44942;48.936;8.260;2023-02-05T15:07:52;59.33;;;9.63;;
59161;SDS011;44942;48.936;8.260;2023-02-05T15:13:18;50.97;;;9.55;;
59161;SDS011;44942;48.936;8.260;2023-02-05T15:18:22;41.92;;;10.30;;
59161;SDS011;44942;48.936;8.260;2023-02-05T15:28:46;81.57;;;14.45;;
59161;SDS011;44942;48.936;8.260;2023-02-05T15:34:05;84.65;;;16.25;;
59161;SDS011;44942;48.936;8.260;2023-02-05T15:39:31;90.85;;;17.52;;
59161;SDS011;44942;48.936;8.260;2023-02-05T15:44:44;84.25;;;16.88;;
59161;SDS011;44942;48.936;8.260;2023-02-05T15:49:46;73.87;;;17.10;;
59161;SDS011;44942;48.936;8.260;2023-02-05T15:54:53;65.10;;;16.40;;
59161;SDS011;44942;48.936;8.260;2023-02-05T15:59:56;64.05;;;18.02;;
59161;SDS011;44942;48.936;8.260;2023-02-05T16:05:02;62.92;;;16.38;;
59161;SDS011;44942;48.936;8.260;2023-02-05T16:10:18;73.78;;;17.58;;
59161;SDS011;44942;48.936;8.260;2023-02-05T16:15:21;85.18;;;17.63;;
59161;SDS011;44942;48.936;8.260;2023-02-05T16:20:22;74.28;;;18.48;;
59161;SDS011;44942;48.936;8.260;2023-02-05T16:25:31;72.13;;;17.52;;
59161;SDS011;44942;48.936;8.260;2023-02-05T16:30:39;67.90;;;17.52;;
59161;SDS011;44942;48.936;8.260;2023-02-05T16:35:43;72.30;;;19.60;;
59161;SDS011;44942;48.936;8.260;2023-02-05T16:40:47;63.05;;;18.15;;
59161;SDS011;44942;48.936;8.260;2023-02-05T16:46:18;63.42;;;18.38;;
59161;SDS011;44942;48.936;8.260;2023-02-05T16:51:34;53.67;;;16.40;;
59161;SDS011;44942;48.936;8.260;2023-02-05T16:56:57;54.58;;;15.80;;
59161;SDS011;44942;48.936;8.260;2023-02-05T17:02:03;49.60;;;15.35;;
59161;SDS011;44942;48.936;8.260;2023-02-05T17:07:13;47.30;;;14.80;;
59161;SDS011;44942;48.936;8.260;2023-02-05T17:17:20;43.50;;;13.93;;
59161;SDS011;44942;48.936;8.260;2023-02-05T17:22:21;39.78;;;12.93;;
59161;SDS011;44942;48.936;8.260;2023-02-05T17:27:29;42.30;;;12.20;;
59161;SDS011;44942;48.936;8.260;2023-02-05T17:32:31;34.60;;;11.82;;
59161;SDS011;44942;48.936;8.260;2023-02-05T17:37:32;37.93;;;11.77;;
59161;SDS011;44942;48.936;8.260;2023-02-05T17:42:33;54.63;;;12.65;;
59161;SDS011;44942;48.936;8.260;2023-02-05T17:47:34;32.67;;;11.70;;
59161;SDS011;44942;48.936;8.260;2023-02-05T17:52:34;98.10;;;12.43;;
59161;SDS011;44942;48.936;8.260;2023-02-05T17:57:35;51.33;;;12.07;;
59161;SDS011;44942;48.936;8.260;2023-02-05T18:02:36;30.07;;;10.77;;
59161;SDS011;44942;48.936;8.260;2023-02-05T18:07:38;37.07;;;11.43;;
59161;SDS011;44942;48.936;8.260;2023-02-05T18:12:45;37.42;;;10.65;;
59161;SDS011;44942;48.936;8.260;2023-02-05T18:17:45;77.03;;;12.10;;
59161;SDS011;44942;48.936;8.260;2023-02-05T18:22:47;53.27;;;11.33;;
59161;SDS011;44942;48.936;8.260;2023-02-05T18:27:48;49.85;;;11.13;;
59161;SDS011;44942;48.936;8.260;2023-02-05T18:32:50;58.78;;;12.48;;
59161;SDS011;44942;48.936;8.260;2023-02-05T18:42:51;76.73;;;14.33;;
59161;SDS011;44942;48.936;8.260;2023-02-05T18:47:51;67.17;;;13.20;;
59161;SDS011;44942;48.936;8.260;2023-02-05T18:52:52;71.10;;;14.03;;
59161;SDS011;44942;48.936;8.260;2023-02-05T18:57:53;63.07;;;13.23;;
59161;SDS011;44942;48.936;8.260;2023-02-05T19:02:53;56.63;;;12.57;;
59161;SDS011;44942;48.936;8.260;2023-02-05T19:07:54;63.60;;;13.35;;
59161;SDS011;44942;48.936;8.260;2023-02-05T19:12:55;53.43;;;12.47;;
59161;SDS011;44942;48.936;8.260;2023-02-05T19:17:55;50.10;;;11.73;;
59161;SDS011;44942;48.936;8.260;2023-02-05T19:22:56;52.60;;;11.37;;
59161;SDS011;44942;48.936;8.260;2023-02-05T19:27:57;48.10;;;11.47;;
59161;SDS011;44942;48.936;8.260;2023-02-05T19:32:57;50.83;;;11.77;;
59161;SDS011;44942;48.936;8.260;2023-02-05T19:37:58;51.95;;;11.05;;
59161;SDS011;44942;48.936;8.260;2023-02-05T19:42:58;15.93;;;9.77;;
59161;SDS011;44942;48.936;8.260;2023-02-05T19:47:59;21.27;;;9.37;;
59161;SDS011;44942;48.936;8.260;2023-02-05T19:53:00;35.97;;;10.93;;
59161;SDS011;44942;48.936;8.260;2023-02-05T19:58:00;36.93;;;11.83;;
59161;SDS011;44942;48.936;8.260;2023-02-05T20:03:01;38.08;;;11.30;;
59161;SDS011;44942;48.936;8.260;2023-02-05T20:08:02;30.00;;;9.97;;
59161;SDS011;44942;48.936;8.260;2023-02-05T20:13:03;32.67;;;10.53;;
59161;SDS011;44942;48.936;8.260;2023-02-05T20:18:03;31.90;;;9.50;;
59161;SDS011;44942;48.936;8.260;2023-02-05T20:23:04;27.70;;;9.93;;
59161;SDS011;44942;48.936;8.260;2023-02-05T20:28:05;22.90;;;8.87;;
59161;SDS011;44942;48.936;8.260;2023-02-05T20:33:05;26.88;;;9.73;;
59161;SDS011;44942;48.936;8.260;2023-02-05T20:38:06;26.17;;;9.10;;
59161;SDS011;44942;48.936;8.260;2023-02-05T20:43:07;26.15;;;8.90;;
59161;SDS011;44942;48.936;8.260;2023-02-05T20:48:08;24.95;;;9.00;;
59161;SDS011;44942;48.936;8.260;2023-02-05T20:53:08;22.90;;;8.27;;
59161;SDS011;44942;48.936;8.260;2023-02-05T20:58:09;23.40;;;8.07;;
59161;SDS011;44942;48.936;8.260;2023-02-05T21:03:09;22.90;;;8.07;;
59161;SDS011;44942;48.936;8.260;2023-02-05T21:08:10;29.50;;;8.70;;
59161;SDS011;44942;48.936;8.260;2023-02-05T21:13:11;19.90;;;7.30;;
59161;SDS011;44942;48.936;8.260;2023-02-05T21:18:11;19.77;;;7.13;;
59161;SDS011;44942;48.936;8.260;2023-02-05T21:23:12;20.80;;;7.20;;
59161;SDS011;44942;48.936;8.260;2023-02-05T21:28:13;17.07;;;7.07;;
59161;SDS011;44942;48.936;8.260;2023-02-05T21:33:14;17.73;;;7.10;;
59161;SDS011;44942;48.936;8.260;2023-02-05T21:38:14;19.03;;;6.80;;
59161;SDS011;44942;48.936;8.260;2023-02-05T21:43:15;15.30;;;6.53;;
59161;SDS011;44942;48.936;8.260;2023-02-05T21:48:15;18.27;;;6.47;;
59161;SDS011;44942;48.936;8.260;2023-02-05T21:53:16;21.60;;;7.07;;
59161;SDS011;44942;48.936;8.260;2023-02-05T21:58:16;16.43;;;6.10;;
59161;SDS011;44942;48.936;8.260;2023-02-05T22:03:17;14.90;;;6.00;;
59161;SDS011;44942;48.936;8.260;2023-02-05T22:08:18;14.63;;;5.70;;
59161;SDS011;44942;48.936;8.260;2023-02-05T22:13:18;15.43;;;5.90;;
59161;SDS011;44942;48.936;8.260;2023-02-05T22:18:19;12.50;;;5.33;;
59161;SDS011;44942;48.936;8.260;2023-02-05T22:23:19;14.37;;;5.87;;
59161;SDS011;44942;48.936;8.260;2023-02-05T22:28:20;11.70;;;5.53;;
59161;SDS011;44942;48.936;8.260;2023-02-05T22:33:20;13.87;;;5.83;;
59161;SDS011;44942;48.936;8.260;2023-02-05T22:38:21;13.00;;;5.10;;
59161;SDS011;44942;48.936;8.260;2023-02-05T22:43:22;14.30;;;5.47;;
59161;SDS011;44942;48.936;8.260;2023-02-05T22:48:22;19.80;;;5.63;;
59161;SDS011;44942;48.936;8.260;2023-02-05T22:53:23;13.87;;;5.00;;
59161;SDS011;44942;48.936;8.260;2023-02-05T22:58:23;10.00;;;4.87;;
59161;SDS011;44942;48.936;8.260;2023-02-05T23:03:24;12.00;;;4.90;;
59161;SDS011;44942;48.936;8.260;2023-02-05T23:08:25;8.83;;;4.67;;
59161;SDS011;44942;48.936;8.260;2023-02-05T23:13:25;8.67;;;4.63;;
59161;SDS011;44942;48.936;8.260;2023-02-05T23:18:26;9.60;;;4.90;;
59161;SDS011;44942;48.936;8.260;2023-02-05T23:23:26;9.93;;;4.17;;
59161;SDS011;44942;48.936;8.260;2023-02-05T23:28:27;9.93;;;4.40;;
59161;SDS011;44942;48.936;8.260;2023-02-05T23:33:28;10.50;;;4.80;;
59161;SDS011;44942;48.936;8.260;2023-02-05T23:38:29;9.82;;;4.15;;
59161;SDS011;44942;48.936;8.260;2023-02-05T23:43:30;10.50;;;4.20;;
59161;SDS011;44942;48.936;8.260;2023-02-05T23:48:31;8.55;;;4.20;;
59161;SDS011;44942;48.936;8.260;2023-02-05T23:53:32;8.13;;;4.30;;
59161;SDS011;44942;48.936;8.260;2023-02-05T23:58:33;8.43;;;4.03;;
